createdAt,value
2022-09-04T00:08:01.203Z,75092.84
2022-09-04T00:18:10.698Z,75133.31
2022-09-04T00:28:25.749Z,75141.41
2022-09-04T00:38:45.143Z,75147.47
2022-09-04T00:49:11.543Z,75157.59
2022-09-04T00:59:18.680Z,75175.78
2022-09-04T01:09:51.046Z,75189.97
2022-09-04T01:20:19.652Z,75187.94
2022-09-04T01:30:22.500Z,75234.47
2022-09-04T01:40:36.209Z,75260.78
2022-09-04T01:50:39.986Z,75283.03
2022-09-04T02:01:11.185Z,75311.38
2022-09-04T02:11:19.298Z,75333.63
2022-09-04T02:21:37.789Z,75370.06
2022-09-04T02:31:52.245Z,75386.25
2022-09-04T02:42:06.438Z,75396.38
2022-09-04T02:52:23.059Z,75380.19
2022-09-04T03:02:36.159Z,75357.91
2022-09-04T03:12:50.346Z,75388.28
2022-09-04T03:23:16.458Z,75378.16
2022-09-04T03:33:37.950Z,75378.16
2022-09-04T03:43:52.785Z,75378.16
2022-09-04T03:54:35.393Z,75378.16
2022-09-04T04:04:53.857Z,75382.19
2022-09-04T04:15:08.888Z,75349.81
2022-09-04T04:25:47.673Z,75323.50
2022-09-04T04:36:10.199Z,75281.03
2022-09-04T04:46:40.095Z,75198.06
2022-09-04T04:57:04.013Z,75189.97
2022-09-04T05:07:18.315Z,75159.59
2022-09-04T05:17:59.163Z,74961.31
2022-09-04T05:28:23.289Z,74892.50
2022-09-04T05:38:43.963Z,74769.09
2022-09-04T05:48:57.937Z,74645.66
2022-09-04T05:59:02.594Z,74637.56
2022-09-04T06:09:17.154Z,74544.50
2022-09-04T06:19:37.877Z,74475.72
2022-09-04T06:30:06.521Z,74374.56
2022-09-04T06:40:24.454Z,74338.16
2022-09-04T06:50:50.188Z,74344.22
2022-09-04T07:01:08.602Z,74232.94
2022-09-04T07:11:31.844Z,74176.31
2022-09-04T07:21:40.329Z,74208.66
2022-09-04T07:31:46.884Z,74216.75
2022-09-04T07:41:54.601Z,74315.88
2022-09-04T07:52:03.831Z,74392.78
2022-09-04T08:02:29.493Z,74297.69
2022-09-04T08:12:59.602Z,74267.34
2022-09-04T08:23:20.691Z,74309.81
2022-09-04T08:33:39.412Z,74259.25
2022-09-04T08:44:16.140Z,74382.66
2022-09-04T08:54:47.596Z,74326.00
2022-09-04T09:05:00.275Z,74332.06
2022-09-04T09:15:23.100Z,74285.53
2022-09-04T09:25:49.624Z,74352.31
2022-09-04T09:36:07.983Z,74370.50
2022-09-04T09:46:38.764Z,74340.16
2022-09-04T09:57:20.143Z,74362.41
2022-09-04T10:07:37.276Z,74326.00
2022-09-04T10:18:00.582Z,74287.56
2022-09-04T10:28:14.888Z,74293.63
2022-09-04T10:38:28.729Z,74346.22
2022-09-04T10:49:02.003Z,74394.78
2022-09-04T10:59:13.039Z,74382.66
2022-09-04T11:09:31.745Z,74328.03
2022-09-04T11:20:16.163Z,74315.88
2022-09-04T11:30:59.124Z,74273.41
2022-09-04T11:41:36.693Z,74249.13
2022-09-04T11:52:06.729Z,74239.00
2022-09-04T12:02:29.169Z,74277.44
2022-09-04T12:12:31.226Z,74295.66
2022-09-04T12:23:11.695Z,74232.94
2022-09-04T12:33:29.181Z,74196.53
2022-09-04T12:43:31.326Z,74220.81
2022-09-04T12:53:37.413Z,74269.34
2022-09-04T13:03:47.262Z,74285.53
2022-09-04T13:13:56.921Z,74301.72
2022-09-04T13:24:01.607Z,74295.66
2022-09-04T13:34:29.256Z,74307.78
2022-09-04T13:44:56.564Z,74293.63
2022-09-04T13:55:09.669Z,74253.19
2022-09-04T14:05:24.356Z,74202.59
2022-09-04T14:15:38.491Z,74241.03
2022-09-04T14:25:59.162Z,74273.41
2022-09-04T14:36:07.779Z,74273.41
2022-09-04T14:46:28.868Z,74307.78
2022-09-04T14:56:58.683Z,74326.00
2022-09-04T15:07:29.502Z,74309.81
2022-09-04T15:17:38.446Z,74299.72
2022-09-04T15:27:50.750Z,74305.78
2022-09-04T15:38:06.790Z,74311.84
2022-09-04T15:48:54.168Z,74336.13
2022-09-04T15:59:29.955Z,74366.47
2022-09-04T16:09:44.067Z,74382.66
2022-09-04T16:20:12.919Z,74394.78
2022-09-04T16:30:30.461Z,74429.19
2022-09-04T16:40:48.813Z,74475.72
2022-09-04T16:51:39.187Z,74508.09
2022-09-04T17:01:52.354Z,74550.56
2022-09-04T17:11:58.975Z,74576.88
2022-09-04T17:29:02.979Z,74615.31
2022-09-04T17:38:24.339Z,74676.00
2022-09-04T17:44:03.108Z,74718.50
2022-09-04T17:54:14.550Z,74758.97
2022-09-04T18:04:37.687Z,74791.34
2022-09-04T18:15:33.360Z,74815.63
2022-09-04T18:25:51.009Z,74837.88
2022-09-04T18:37:20.792Z,74858.13
2022-09-04T18:50:40.368Z,74872.28
2022-09-04T18:57:06.622Z,74888.47
2022-09-04T19:07:19.602Z,74904.66
2022-09-04T19:17:35.745Z,74904.66
2022-09-04T19:27:43.524Z,74932.97
2022-09-04T19:40:15.201Z,74941.06
2022-09-04T19:50:01.811Z,74969.41
2022-09-04T19:59:23.301Z,74985.59
2022-09-04T20:09:38.725Z,75015.94
2022-09-04T20:20:01.341Z,75056.41
2022-09-04T20:30:25.112Z,75082.72
2022-09-04T20:40:41.111Z,75129.25
2022-09-04T20:52:55.259Z,75175.78
2022-09-04T21:03:21.879Z,75191.97
2022-09-04T21:11:42.060Z,75218.28
2022-09-04T21:22:02.491Z,75242.56
2022-09-04T21:32:24.704Z,75252.69
2022-09-04T21:42:41.962Z,75274.94
2022-09-04T21:53:07.066Z,75289.13
2022-09-04T22:03:47.463Z,75301.25
2022-09-04T22:14:25.417Z,75325.53
2022-09-04T22:24:55.154Z,75337.69
2022-09-04T22:35:35.810Z,75357.91
2022-09-04T22:46:09.130Z,75378.16
2022-09-04T22:56:24.830Z,75406.47
2022-09-04T23:08:31.185Z,75426.72
2022-09-04T23:17:30.862Z,75446.97
2022-09-04T23:28:27.316Z,75463.16
2022-09-04T23:38:40.666Z,75463.16
2022-09-04T23:49:10.290Z,75483.38
2022-09-04T23:59:38.796Z,75503.63
